createdAt,value
2023-01-15T00:00:12.020Z,94.90
2023-01-15T00:02:40.045Z,94.00
2023-01-15T00:05:09.938Z,96.20
2023-01-15T00:07:40.772Z,97.00
2023-01-15T00:10:09.943Z,96.90
2023-01-15T00:12:37.887Z,96.10
2023-01-15T00:15:08.298Z,94.60
2023-01-15T00:17:39.073Z,96.10
2023-01-15T00:20:11.798Z,96.60
2023-01-15T00:22:42.697Z,96.40
2023-01-15T00:25:31.248Z,95.40
2023-01-15T00:28:01.601Z,96.40
2023-01-15T00:30:31.071Z,96.10
2023-01-15T00:33:03.888Z,95.30
2023-01-15T00:35:34.597Z,96.30
2023-01-15T00:38:02.641Z,96.50
2023-01-15T00:40:36.428Z,95.60
2023-01-15T00:43:06.737Z,96.10
2023-01-15T00:45:38.474Z,95.70
2023-01-15T00:48:14.947Z,93.40
2023-01-15T00:50:42.824Z,96.20
2023-01-15T00:53:10.673Z,95.40
2023-01-15T00:55:47.675Z,96.10
2023-01-15T00:58:21.444Z,94.90
2023-01-15T01:00:54.585Z,95.80
2023-01-15T01:03:31.039Z,95.40
2023-01-15T01:06:01.685Z,95.60
2023-01-15T01:08:32.609Z,95.60
2023-01-15T01:11:08.014Z,95.40
2023-01-15T01:13:36.496Z,95.40
2023-01-15T01:16:06.254Z,95.20
2023-01-15T01:18:39.257Z,95.20
2023-01-15T01:21:10.210Z,95.10
2023-01-15T01:23:40.316Z,95.00
2023-01-15T01:26:10.593Z,94.90
2023-01-15T01:28:40.667Z,95.00
2023-01-15T01:31:18.305Z,95.00
2023-01-15T01:33:48.981Z,94.90
2023-01-15T01:36:26.563Z,94.80
2023-01-15T01:38:54.427Z,94.80
2023-01-15T01:41:26.013Z,94.90
2023-01-15T01:44:24.988Z,94.90
2023-01-15T01:46:54.236Z,94.90
2023-01-15T01:49:25.653Z,94.90
2023-01-15T01:51:57.280Z,94.80
2023-01-15T01:54:30.274Z,95.20
2023-01-15T01:57:04.037Z,94.90
2023-01-15T01:59:35.441Z,93.80
2023-01-15T02:02:05.184Z,94.90
2023-01-15T02:04:34.008Z,94.90
2023-01-15T02:07:02.505Z,94.80
2023-01-15T02:09:33.662Z,94.70
2023-01-15T02:12:12.551Z,94.60
2023-01-15T02:14:58.606Z,94.60
2023-01-15T02:17:39.023Z,94.70
2023-01-15T02:20:33.179Z,94.00
2023-01-15T02:23:37.815Z,94.70
2023-01-15T02:26:37.692Z,94.60
2023-01-15T02:29:16.566Z,94.70
2023-01-15T02:31:53.827Z,94.80
2023-01-15T02:34:30.127Z,94.80
2023-01-15T02:37:02.855Z,94.70
2023-01-15T02:39:35.960Z,93.90
2023-01-15T02:42:10.865Z,94.50
2023-01-15T02:44:43.241Z,94.60
2023-01-15T02:47:12.414Z,94.20
2023-01-15T02:49:45.249Z,94.20
2023-01-15T02:52:22.262Z,94.70
2023-01-15T02:54:58.994Z,93.60
2023-01-15T02:57:31.542Z,94.50
2023-01-15T03:00:08.033Z,94.50
2023-01-15T03:02:41.131Z,94.50
2023-01-15T03:05:12.672Z,94.60
2023-01-15T03:07:52.703Z,94.50
2023-01-15T03:10:22.959Z,94.70
2023-01-15T03:13:08.381Z,94.40
2023-01-15T03:16:11.819Z,94.60
2023-01-15T03:18:49.103Z,94.60
2023-01-15T03:21:35.140Z,94.50
2023-01-15T03:24:07.477Z,94.50
2023-01-15T03:26:44.114Z,94.50
2023-01-15T03:29:14.125Z,94.20
2023-01-15T03:31:51.760Z,94.60
2023-01-15T03:34:20.581Z,94.60
2023-01-15T03:36:51.401Z,94.00
2023-01-15T03:39:19.363Z,94.50
2023-01-15T03:41:55.285Z,94.50
2023-01-15T03:44:33.759Z,94.40
2023-01-15T03:47:19.288Z,94.20
2023-01-15T03:50:04.084Z,94.20
2023-01-15T03:52:36.252Z,94.30
2023-01-15T03:55:19.386Z,94.30
2023-01-15T03:57:53.045Z,94.10
2023-01-15T04:00:27.334Z,94.20
2023-01-15T04:02:58.322Z,94.50
2023-01-15T04:05:33.364Z,94.20
2023-01-15T04:08:02.089Z,94.20
2023-01-15T04:10:35.538Z,94.10
2023-01-15T04:13:03.418Z,94.10
2023-01-15T04:15:41.629Z,94.20
2023-01-15T04:18:10.902Z,94.10
2023-01-15T04:20:38.769Z,94.00
2023-01-15T04:23:09.128Z,94.10
2023-01-15T04:25:37.093Z,94.00
2023-01-15T04:28:05.259Z,94.00
2023-01-15T04:30:36.519Z,93.90
2023-01-15T04:33:07.247Z,93.90
2023-01-15T04:35:36.686Z,93.80
2023-01-15T04:38:07.673Z,93.80
2023-01-15T04:40:55.809Z,93.80
2023-01-15T04:43:41.453Z,93.70
2023-01-15T04:46:09.329Z,93.70
2023-01-15T04:48:49.226Z,93.60
2023-01-15T04:51:23.927Z,93.70
2023-01-15T04:53:57.086Z,93.80
2023-01-15T04:56:25.247Z,93.70
2023-01-15T04:58:53.126Z,93.70
2023-01-15T05:01:28.740Z,93.70
2023-01-15T05:03:58.246Z,93.70
2023-01-15T05:06:27.542Z,93.60
2023-01-15T05:08:55.545Z,93.60
2023-01-15T05:11:32.928Z,93.60
2023-01-15T05:14:00.759Z,93.70
2023-01-15T05:16:29.862Z,93.50
2023-01-15T05:18:59.708Z,93.60
2023-01-15T05:21:53.754Z,93.60
2023-01-15T05:24:27.677Z,93.50
2023-01-15T05:26:58.054Z,93.60
2023-01-15T05:29:28.400Z,93.50
2023-01-15T05:31:56.234Z,93.50
2023-01-15T05:34:24.353Z,93.50
2023-01-15T05:36:53.623Z,93.40
2023-01-15T05:39:21.535Z,93.40
2023-01-15T05:41:55.253Z,93.30
2023-01-15T05:44:27.307Z,93.20
2023-01-15T05:46:57.086Z,93.10
2023-01-15T05:49:26.918Z,93.30
2023-01-15T05:52:01.264Z,93.20
2023-01-15T05:54:31.263Z,93.20
2023-01-15T05:56:59.740Z,93.10
2023-01-15T05:59:34.355Z,92.70
2023-01-15T06:02:02.339Z,93.10
2023-01-15T06:04:33.126Z,93.10
2023-01-15T06:07:02.407Z,93.10
2023-01-15T06:09:33.354Z,93.10
2023-01-15T06:12:01.253Z,93.00
2023-01-15T06:14:36.455Z,91.50
2023-01-15T06:17:04.309Z,92.90
2023-01-15T06:19:39.725Z,93.00
2023-01-15T06:22:11.799Z,92.90
2023-01-15T06:24:41.987Z,92.10
2023-01-15T06:27:09.851Z,92.70
2023-01-15T06:29:37.700Z,92.80
2023-01-15T06:32:05.863Z,92.70
2023-01-15T06:34:33.951Z,92.70
2023-01-15T06:37:01.818Z,92.70
2023-01-15T06:39:40.048Z,92.80
2023-01-15T06:42:25.723Z,89.90
2023-01-15T06:45:11.231Z,91.60
2023-01-15T06:47:39.091Z,92.90
2023-01-15T06:50:07.619Z,92.90
2023-01-15T06:52:35.489Z,93.00
2023-01-15T06:55:11.592Z,93.10
2023-01-15T06:57:39.887Z,92.80
2023-01-15T07:00:09.238Z,91.30
2023-01-15T07:02:37.171Z,92.60
2023-01-15T07:05:05.696Z,92.70
2023-01-15T07:07:48.890Z,92.80
2023-01-15T07:10:18.980Z,92.70
2023-01-15T07:12:46.806Z,91.50
2023-01-15T07:15:15.361Z,91.00
2023-01-15T07:17:45.892Z,91.40
2023-01-15T07:20:14.272Z,91.50
2023-01-15T07:22:42.152Z,91.80
2023-01-15T07:25:11.213Z,91.80
2023-01-15T07:27:47.580Z,91.80
2023-01-15T07:30:16.244Z,91.90
2023-01-15T07:32:44.133Z,92.00
2023-01-15T07:35:11.989Z,92.00
2023-01-15T07:37:46.044Z,92.10
2023-01-15T07:40:17.130Z,91.90
2023-01-15T07:43:03.883Z,92.00
2023-01-15T07:45:51.903Z,92.10
2023-01-15T07:48:37.321Z,92.10
2023-01-15T07:51:07.996Z,92.10
2023-01-15T07:53:35.928Z,92.10
2023-01-15T07:56:03.835Z,87.90
2023-01-15T07:58:35.756Z,85.70
2023-01-15T08:01:12.931Z,88.60
2023-01-15T08:03:51.137Z,90.10
2023-01-15T08:06:21.390Z,88.00
2023-01-15T08:08:56.836Z,85.90
2023-01-15T08:11:42.378Z,85.80
2023-01-15T08:14:31.626Z,87.00
2023-01-15T08:17:02.405Z,89.00
2023-01-15T08:19:30.605Z,87.70
2023-01-15T08:22:01.425Z,90.20
2023-01-15T08:24:38.571Z,89.60
2023-01-15T08:27:06.479Z,90.60
2023-01-15T08:29:35.723Z,88.60
2023-01-15T08:32:15.960Z,90.70
2023-01-15T08:34:44.283Z,90.80
2023-01-15T08:37:22.146Z,90.70
2023-01-15T08:39:52.909Z,90.60
2023-01-15T08:42:23.709Z,90.90
2023-01-15T08:44:55.356Z,91.20
2023-01-15T08:47:23.236Z,91.20
2023-01-15T08:49:56.908Z,91.00
2023-01-15T08:52:24.794Z,91.20
2023-01-15T08:54:52.699Z,91.20
2023-01-15T08:57:32.746Z,90.60
2023-01-15T09:00:10.952Z,91.20
2023-01-15T09:02:41.581Z,90.50
2023-01-15T09:05:12.333Z,91.20
2023-01-15T09:07:43.131Z,91.30
2023-01-15T09:10:16.970Z,91.10
2023-01-15T09:12:54.038Z,91.20
2023-01-15T09:15:30.026Z,91.30
2023-01-15T09:17:58.200Z,91.30
2023-01-15T09:20:29.199Z,91.20
2023-01-15T09:22:57.084Z,91.30
2023-01-15T09:25:24.980Z,91.30
2023-01-15T09:27:56.070Z,90.10
2023-01-15T09:30:24.329Z,91.30
2023-01-15T09:32:56.466Z,91.30
2023-01-15T09:35:27.199Z,89.30
2023-01-15T09:37:55.733Z,91.50
2023-01-15T09:40:50.475Z,90.80
2023-01-15T09:43:55.688Z,90.40
2023-01-15T09:46:30.823Z,91.20
2023-01-15T09:49:07.907Z,91.20
2023-01-15T09:51:47.287Z,91.20
2023-01-15T09:54:56.088Z,91.10
2023-01-15T09:57:33.581Z,91.20
2023-01-15T10:00:03.821Z,90.90
2023-01-15T10:02:38.919Z,91.10
2023-01-15T10:05:27.146Z,91.10
2023-01-15T10:08:03.168Z,91.00
2023-01-15T10:10:36.682Z,90.90
2023-01-15T10:13:34.633Z,90.70
2023-01-15T10:16:10.304Z,90.90
2023-01-15T10:18:40.144Z,91.00
2023-01-15T10:21:29.663Z,90.90
2023-01-15T10:24:06.775Z,90.80
2023-01-15T10:26:40.468Z,91.10
2023-01-15T10:29:20.793Z,89.50
2023-01-15T10:32:04.745Z,90.90
2023-01-15T10:35:05.030Z,90.90
2023-01-15T10:37:43.125Z,91.10
2023-01-15T10:40:25.226Z,87.80
2023-01-15T10:42:59.588Z,90.90
2023-01-15T10:45:38.085Z,90.80
2023-01-15T10:48:31.958Z,90.70
2023-01-15T10:51:08.420Z,90.50
2023-01-15T10:53:48.625Z,90.40
2023-01-15T10:56:28.912Z,90.60
2023-01-15T10:59:05.111Z,90.40
2023-01-15T11:01:36.841Z,90.70
2023-01-15T11:04:09.268Z,90.60
2023-01-15T11:06:37.138Z,89.10
2023-01-15T11:09:41.761Z,90.80
2023-01-15T11:12:39.755Z,90.60
2023-01-15T11:15:40.354Z,90.80
2023-01-15T11:18:32.451Z,89.10
2023-01-15T11:21:20.821Z,90.80
2023-01-15T11:23:49.608Z,90.70
2023-01-15T11:26:27.676Z,90.80
2023-01-15T11:28:58.248Z,90.60
2023-01-15T11:31:44.217Z,90.50
2023-01-15T11:34:21.890Z,90.50
2023-01-15T11:37:03.989Z,90.10
2023-01-15T11:39:38.139Z,90.40
2023-01-15T11:42:37.529Z,90.50
2023-01-15T11:45:41.420Z,90.60
2023-01-15T11:48:35.228Z,90.40
2023-01-15T11:51:08.044Z,90.20
2023-01-15T11:53:42.520Z,89.10
2023-01-15T11:56:14.589Z,90.30
2023-01-15T11:58:48.531Z,90.60
2023-01-15T12:01:27.991Z,90.30
2023-01-15T12:03:56.753Z,90.20
2023-01-15T12:06:28.623Z,90.20
2023-01-15T12:09:27.667Z,90.40
2023-01-15T12:12:13.004Z,85.70
2023-01-15T12:15:02.495Z,90.40
2023-01-15T12:18:01.392Z,83.30
2023-01-15T12:20:44.533Z,86.30
2023-01-15T12:23:46.985Z,88.20
2023-01-15T12:26:21.214Z,89.10
2023-01-15T12:29:08.505Z,89.60
2023-01-15T12:31:41.171Z,89.70
2023-01-15T12:34:23.163Z,88.90
2023-01-15T12:36:59.731Z,89.80
2023-01-15T12:39:41.161Z,89.80
2023-01-15T12:42:32.667Z,89.90
2023-01-15T12:45:05.303Z,89.70
2023-01-15T12:48:00.060Z,89.80
2023-01-15T12:50:53.377Z,89.30
2023-01-15T12:53:28.405Z,89.20
2023-01-15T12:56:09.069Z,89.00
2023-01-15T12:58:45.245Z,89.50
2023-01-15T13:01:17.615Z,89.60
2023-01-15T13:04:02.763Z,87.50
2023-01-15T13:06:33.096Z,89.70
2023-01-15T13:09:11.226Z,88.20
2023-01-15T13:11:48.248Z,89.00
2023-01-15T13:14:25.313Z,88.90
2023-01-15T13:17:03.827Z,87.60
2023-01-15T13:19:42.294Z,89.40
2023-01-15T13:22:16.556Z,89.60
2023-01-15T13:25:43.451Z,89.10
2023-01-15T13:28:39.019Z,89.20
2023-01-15T13:31:23.919Z,89.30
2023-01-15T13:33:57.128Z,89.20
2023-01-15T13:36:33.248Z,89.60
2023-01-15T13:39:06.245Z,89.20
2023-01-15T13:41:53.146Z,89.40
2023-01-15T13:44:47.178Z,89.80
2023-01-15T13:47:28.247Z,89.40
2023-01-15T13:49:59.743Z,89.30
2023-01-15T13:52:36.326Z,89.00
2023-01-15T13:55:12.546Z,88.60
2023-01-15T13:57:42.556Z,88.60
2023-01-15T14:00:29.461Z,89.00
2023-01-15T14:03:01.757Z,89.10
2023-01-15T14:05:33.113Z,88.50
2023-01-15T14:08:06.144Z,88.90
2023-01-15T14:10:50.612Z,86.70
2023-01-15T14:13:46.797Z,89.20
2023-01-15T14:16:25.113Z,88.80
2023-01-15T14:19:30.173Z,88.00
2023-01-15T14:22:36.065Z,88.80
2023-01-15T14:25:31.447Z,88.80
2023-01-15T14:28:23.534Z,85.20
2023-01-15T14:31:27.674Z,89.30
2023-01-15T14:34:09.803Z,88.60
2023-01-15T14:36:41.990Z,87.90
2023-01-15T14:39:30.039Z,86.70
2023-01-15T14:42:28.592Z,88.70
2023-01-15T14:45:21.928Z,88.40
2023-01-15T14:47:51.548Z,88.10
2023-01-15T14:50:38.885Z,87.80
2023-01-15T14:53:27.814Z,88.30
2023-01-15T14:55:59.474Z,87.50
2023-01-15T14:58:40.081Z,85.30
2023-01-15T15:01:19.754Z,87.90
2023-01-15T15:03:58.199Z,80.60
2023-01-15T15:06:27.311Z,88.40
2023-01-15T15:09:03.215Z,88.50
2023-01-15T15:12:00.285Z,87.80
2023-01-15T15:14:48.901Z,88.50
2023-01-15T15:17:32.298Z,88.60
2023-01-15T15:20:23.818Z,88.70
2023-01-15T15:22:56.738Z,88.40
2023-01-15T15:25:34.070Z,86.60
2023-01-15T15:28:06.819Z,88.30
2023-01-15T15:30:44.695Z,88.00
2023-01-15T15:33:20.616Z,87.90
2023-01-15T15:35:57.883Z,87.30
2023-01-15T15:38:31.019Z,87.50
2023-01-15T15:41:02.568Z,87.70
2023-01-15T15:43:57.928Z,87.70
2023-01-15T15:46:49.499Z,87.80
2023-01-15T15:49:23.169Z,88.00
2023-01-15T15:51:55.311Z,87.50
2023-01-15T15:54:28.048Z,87.70
2023-01-15T15:57:02.103Z,87.20
2023-01-15T15:59:50.086Z,87.00
2023-01-15T16:02:22.218Z,87.50
2023-01-15T16:04:57.141Z,87.30
2023-01-15T16:07:36.381Z,86.90
2023-01-15T16:10:15.454Z,87.30
2023-01-15T16:12:47.859Z,87.10
2023-01-15T16:15:30.775Z,87.10
2023-01-15T16:18:20.476Z,86.50
2023-01-15T16:21:08.730Z,86.80
2023-01-15T16:23:58.048Z,87.00
2023-01-15T16:26:36.406Z,86.30
2023-01-15T16:29:06.382Z,79.80
2023-01-15T16:31:38.687Z,87.30
2023-01-15T16:34:08.173Z,85.20
2023-01-15T16:36:45.373Z,83.80
2023-01-15T16:39:22.003Z,87.20
2023-01-15T16:41:50.730Z,87.70
2023-01-15T16:44:35.076Z,87.10
2023-01-15T16:47:07.007Z,87.10
2023-01-15T16:50:20.839Z,86.90
2023-01-15T16:52:52.365Z,87.30
2023-01-15T16:55:45.884Z,87.10
2023-01-15T16:58:33.892Z,87.20
2023-01-15T17:01:20.521Z,83.70
2023-01-15T17:03:48.476Z,79.90
2023-01-15T17:06:22.843Z,78.50
2023-01-15T17:08:59.820Z,80.30
2023-01-15T17:11:33.437Z,82.20
2023-01-15T17:14:22.019Z,83.90
2023-01-15T17:17:38.332Z,84.40
2023-01-15T17:20:06.690Z,84.90
2023-01-15T17:22:45.298Z,85.40
2023-01-15T17:25:24.009Z,85.70
2023-01-15T17:27:55.859Z,86.40
2023-01-15T17:30:34.508Z,86.40
2023-01-15T17:33:03.916Z,86.60
2023-01-15T17:35:36.785Z,86.60
2023-01-15T17:38:08.407Z,86.40
2023-01-15T17:40:42.570Z,86.40
2023-01-15T17:43:17.434Z,85.00
2023-01-15T17:45:48.751Z,86.80
2023-01-15T17:48:25.654Z,85.20
2023-01-15T17:51:01.626Z,87.70
2023-01-15T17:53:35.937Z,86.30
2023-01-15T17:59:23.854Z,87.80
2023-01-15T18:02:14.396Z,87.90
2023-01-15T18:05:11.547Z,88.00
2023-01-15T18:07:46.402Z,87.60
2023-01-15T18:10:32.802Z,86.60
2023-01-15T18:13:03.623Z,87.70
2023-01-15T18:15:34.700Z,87.70
2023-01-15T18:18:13.292Z,87.70
2023-01-15T18:20:41.132Z,87.70
2023-01-15T18:23:09.025Z,84.50
2023-01-15T18:25:50.534Z,87.30
2023-01-15T18:28:24.288Z,87.30
2023-01-15T18:30:52.140Z,87.90
2023-01-15T18:33:20.051Z,87.70
2023-01-15T18:35:50.043Z,87.90
2023-01-15T18:38:17.950Z,88.00
2023-01-15T18:41:06.845Z,87.20
2023-01-15T18:44:01.914Z,87.80
2023-01-15T18:46:44.571Z,87.40
2023-01-15T18:49:12.489Z,88.20
2023-01-15T18:51:42.515Z,88.00
2023-01-15T18:54:13.613Z,86.10
2023-01-15T18:56:47.862Z,88.60
2023-01-15T18:59:18.922Z,88.00
2023-01-15T19:01:46.955Z,87.60
2023-01-15T19:04:20.272Z,87.60
2023-01-15T19:07:04.193Z,87.70
2023-01-15T19:09:41.246Z,87.90
2023-01-15T19:12:28.541Z,87.90
2023-01-15T19:15:18.918Z,88.00
2023-01-15T19:18:10.676Z,87.90
2023-01-15T19:20:41.337Z,88.00
2023-01-15T19:23:12.672Z,88.10
2023-01-15T19:25:42.475Z,88.10
2023-01-15T19:28:15.739Z,87.90
2023-01-15T19:31:04.375Z,88.00
2023-01-15T19:33:32.515Z,87.90
2023-01-15T19:36:03.578Z,88.10
2023-01-15T19:38:33.059Z,88.00
2023-01-15T19:41:25.323Z,88.40
2023-01-15T19:44:31.692Z,88.40
2023-01-15T19:47:26.964Z,87.90
2023-01-15T19:50:20.584Z,87.90
2023-01-15T19:52:49.237Z,87.90
2023-01-15T19:55:18.092Z,88.10
2023-01-15T19:58:02.877Z,88.10
2023-01-15T20:00:37.453Z,87.90
2023-01-15T20:03:05.931Z,88.30
2023-01-15T20:05:34.258Z,88.40
2023-01-15T20:08:02.116Z,88.40
2023-01-15T20:10:34.337Z,88.30
2023-01-15T20:13:22.632Z,88.10
2023-01-15T20:15:54.191Z,88.00
2023-01-15T20:18:23.434Z,88.10
2023-01-15T20:20:55.913Z,88.20
2023-01-15T20:23:33.929Z,88.10
2023-01-15T20:26:03.197Z,88.00
2023-01-15T20:28:56.709Z,88.10
2023-01-15T20:31:28.555Z,87.90
2023-01-15T20:33:57.761Z,87.90
2023-01-15T20:36:25.744Z,87.90
2023-01-15T20:38:56.039Z,88.00
2023-01-15T20:41:41.387Z,88.00
2023-01-15T20:44:44.814Z,88.20
2023-01-15T20:47:54.187Z,88.10
2023-01-15T20:50:22.081Z,87.60
2023-01-15T20:52:53.947Z,87.60
2023-01-15T20:55:31.228Z,88.00
2023-01-15T20:58:09.162Z,88.00
2023-01-15T21:00:44.378Z,87.50
2023-01-15T21:03:22.400Z,87.70
2023-01-15T21:05:50.286Z,87.40
2023-01-15T21:08:33.440Z,87.60
2023-01-15T21:11:13.161Z,87.70
2023-01-15T21:13:54.549Z,87.90
2023-01-15T21:16:25.367Z,87.30
2023-01-15T21:18:54.627Z,87.60
2023-01-15T21:21:29.919Z,87.20
2023-01-15T21:24:00.136Z,87.00
2023-01-15T21:26:30.964Z,87.90
2023-01-15T21:29:01.272Z,88.00
2023-01-15T21:31:32.024Z,88.00
2023-01-15T21:34:04.373Z,88.00
2023-01-15T21:36:32.257Z,88.30
2023-01-15T21:39:00.136Z,88.30
2023-01-15T21:41:45.019Z,88.90
2023-01-15T21:44:35.606Z,88.60
2023-01-15T21:47:10.853Z,88.70
2023-01-15T21:49:47.117Z,88.40
2023-01-15T21:52:21.977Z,88.60
2023-01-15T21:54:50.073Z,88.50
2023-01-15T21:57:19.012Z,88.70
2023-01-15T21:59:46.877Z,88.80
2023-01-15T22:02:20.219Z,88.60
2023-01-15T22:04:51.935Z,88.60
2023-01-15T22:07:20.030Z,88.40
2023-01-15T22:09:47.906Z,88.70
2023-01-15T22:12:21.977Z,88.50
2023-01-15T22:14:53.649Z,89.20
2023-01-15T22:17:24.480Z,88.90
2023-01-15T22:19:56.375Z,88.70
2023-01-15T22:22:30.546Z,89.10
2023-01-15T22:25:01.032Z,89.20
2023-01-15T22:27:42.729Z,88.90
2023-01-15T22:30:15.519Z,89.00
2023-01-15T22:32:51.403Z,89.20
2023-01-15T22:35:28.350Z,89.40
2023-01-15T22:37:56.238Z,89.70
2023-01-15T22:40:29.771Z,89.60
2023-01-15T22:43:01.391Z,89.50
2023-01-15T22:45:35.265Z,89.30
2023-01-15T22:48:18.278Z,89.60
2023-01-15T22:50:53.617Z,89.60
2023-01-15T22:53:45.328Z,89.50
2023-01-15T22:56:15.942Z,89.90
2023-01-15T22:58:45.933Z,90.00
2023-01-15T23:01:18.498Z,90.00
2023-01-15T23:03:46.436Z,89.90
2023-01-15T23:06:18.080Z,90.00
2023-01-15T23:08:50.128Z,90.00
2023-01-15T23:11:18.083Z,90.00
2023-01-15T23:13:49.140Z,90.00
2023-01-15T23:16:21.380Z,90.00
2023-01-15T23:18:52.228Z,90.00
2023-01-15T23:21:35.215Z,90.00
2023-01-15T23:24:11.643Z,90.00
2023-01-15T23:26:39.854Z,90.10
2023-01-15T23:29:10.741Z,90.10
2023-01-15T23:31:41.605Z,90.20
2023-01-15T23:34:10.461Z,90.20
2023-01-15T23:36:45.898Z,90.20
2023-01-15T23:39:20.018Z,90.20
2023-01-15T23:42:10.171Z,90.30
2023-01-15T23:45:07.435Z,90.20
2023-01-15T23:47:50.140Z,90.20
2023-01-15T23:50:20.924Z,90.30
2023-01-15T23:52:56.377Z,90.30
2023-01-15T23:55:42.401Z,90.10
2023-01-15T23:58:13.054Z,90.20
